Archival Weather

Heathrow

Heathrow, United Kingdom (EGLL)

Report from: Thursday, June 23, 2022 9:20 AM BST
Current time: Tuesday, August 16, 2022 8:23 AM BST

Current weather
Weather history
Weather forecast

Present weatherLight rain
Temperature17.0°C (62.6°F)
Dew point13.0°C (55.4°F)
Winds 4 kts (2.1 m/s, 4.6 mph) Vrb
Winds variableWinds variable from East (90°) to North (359.999999°)
Visibility6.2 mi. (10 km)
Clouds Sky clear
Altimeter29.85 in.Hg (1011 mB)
Relative humidity77 %
Density altitude520 ft. (159 m)
Remarks Fully automated report
Corrected report
No clouds detected
No significant changes expected in the next two hours
Flight conditions Visual Meteorological Conditions
Raw dataCOR EGLL 230820Z AUTO 04004KT 360V090 9999 -RA NCD 17/13 Q1011 NOSIG
An error has occurred. This application may no longer respond until reloaded. Reload 🗙